createdAt,value
2022-11-10T00:04:26.302Z,58.64
2022-11-10T00:09:46.822Z,58.86
2022-11-10T00:15:26.107Z,58.75
2022-11-10T00:20:46.242Z,58.80
2022-11-10T00:26:12.209Z,58.95
2022-11-10T00:31:32.358Z,59.11
2022-11-10T00:36:52.626Z,59.30
2022-11-10T00:42:12.675Z,59.18
2022-11-10T00:47:33.118Z,59.19
2022-11-10T00:52:53.538Z,59.04
2022-11-10T00:58:13.886Z,59.01
2022-11-10T01:03:34.984Z,59.13
2022-11-10T01:08:55.377Z,59.23
2022-11-10T01:14:15.874Z,59.15
2022-11-10T01:19:35.999Z,59.22
2022-11-10T01:24:56.555Z,59.20
2022-11-10T01:30:17.425Z,59.16
2022-11-10T01:35:38.061Z,59.20
2022-11-10T01:40:58.949Z,59.30
2022-11-10T01:46:19.521Z,59.24
2022-11-10T01:51:49.073Z,59.18
2022-11-10T01:57:12.684Z,59.31
2022-11-10T02:02:42.310Z,59.32
2022-11-10T02:08:03.877Z,59.33
2022-11-10T02:13:25.072Z,59.23
2022-11-10T02:18:45.358Z,59.38
2022-11-10T02:24:05.569Z,59.27
2022-11-10T02:29:26.369Z,59.36
2022-11-10T02:34:46.252Z,59.57
2022-11-10T02:40:06.823Z,59.28
2022-11-10T02:45:27.206Z,59.16
2022-11-10T02:50:47.375Z,59.33
2022-11-10T02:56:07.688Z,59.22
2022-11-10T03:01:27.892Z,59.22
2022-11-10T03:06:48.147Z,59.28
2022-11-10T03:12:07.949Z,59.31
2022-11-10T03:17:28.444Z,59.31
2022-11-10T03:22:48.577Z,59.32
2022-11-10T03:28:09.328Z,59.42
2022-11-10T03:33:29.392Z,59.36
2022-11-10T03:38:49.798Z,59.29
2022-11-10T03:44:10.045Z,59.03
2022-11-10T03:49:31.259Z,59.25
2022-11-10T03:54:51.858Z,59.57
2022-11-10T04:00:13.687Z,59.23
2022-11-10T04:05:52.264Z,59.17
2022-11-10T04:11:12.505Z,59.25
2022-11-10T04:16:32.596Z,59.14
2022-11-10T04:21:52.854Z,59.24
2022-11-10T04:27:12.955Z,59.33
2022-11-10T04:32:33.196Z,59.47
2022-11-10T04:37:53.270Z,59.33
2022-11-10T04:43:13.353Z,59.17
2022-11-10T04:48:35.133Z,59.09
2022-11-10T04:53:55.934Z,59.21
2022-11-10T04:59:16.048Z,59.15
2022-11-10T05:04:35.951Z,59.20
2022-11-10T05:09:55.943Z,58.85
2022-11-10T05:15:16.283Z,58.97
2022-11-10T05:20:36.554Z,59.02
2022-11-10T05:25:56.974Z,58.82
2022-11-10T05:31:17.184Z,58.91
2022-11-10T05:36:37.255Z,58.74
2022-11-10T05:41:57.495Z,58.64
2022-11-10T05:47:17.688Z,59.00
2022-11-10T05:52:50.032Z,58.67
2022-11-10T05:58:10.369Z,58.87
2022-11-10T06:03:30.869Z,58.18
2022-11-10T06:08:51.945Z,58.49
2022-11-10T06:14:12.305Z,58.67
2022-11-10T06:19:32.194Z,58.25
2022-11-10T06:24:52.639Z,58.60
2022-11-10T06:30:13.006Z,58.48
2022-11-10T06:35:33.152Z,58.57
2022-11-10T06:40:53.086Z,58.11
2022-11-10T06:46:13.344Z,58.13
2022-11-10T06:51:34.308Z,58.40
2022-11-10T06:56:54.391Z,58.22
2022-11-10T07:02:14.923Z,58.26
2022-11-10T07:07:35.280Z,58.38
2022-11-10T07:12:57.477Z,58.31
2022-11-10T07:18:17.453Z,58.42
2022-11-10T07:23:37.385Z,58.30
2022-11-10T07:28:57.587Z,58.43
2022-11-10T07:34:17.973Z,58.53
2022-11-10T07:39:38.349Z,58.82
2022-11-10T07:44:58.178Z,58.60
2022-11-10T07:50:18.786Z,58.62
2022-11-10T07:55:40.868Z,58.50
2022-11-10T08:01:00.901Z,58.22
2022-11-10T08:06:20.939Z,58.52
2022-11-10T08:11:40.855Z,58.51
2022-11-10T08:17:00.738Z,58.33
2022-11-10T08:22:20.863Z,58.23
2022-11-10T08:27:41.150Z,58.20
2022-11-10T08:33:02.610Z,58.30
2022-11-10T08:38:24.276Z,58.18
2022-11-10T08:43:44.459Z,57.95
2022-11-10T08:49:04.705Z,58.18
2022-11-10T08:54:24.839Z,57.80
2022-11-10T08:59:44.877Z,58.04
2022-11-10T09:05:05.330Z,57.99
2022-11-10T09:10:25.779Z,58.25
2022-11-10T09:15:46.350Z,58.14
2022-11-10T09:21:11.730Z,58.12
2022-11-10T09:26:32.088Z,57.91
2022-11-10T09:31:52.429Z,57.80
2022-11-10T09:37:12.419Z,57.40
2022-11-10T09:42:41.580Z,57.54
2022-11-10T09:48:09.478Z,57.48
2022-11-10T09:53:49.219Z,57.46
2022-11-10T09:59:22.010Z,57.16
2022-11-10T10:05:23.888Z,57.03
2022-11-10T10:10:51.514Z,57.02
2022-11-10T10:16:30.652Z,57.10
2022-11-10T10:22:11.811Z,56.60
2022-11-10T10:27:34.785Z,56.10
2022-11-10T10:33:02.901Z,55.98
2022-11-10T10:38:36.415Z,55.89
2022-11-10T10:43:59.450Z,55.76
2022-11-10T10:49:28.601Z,55.82
2022-11-10T10:55:01.002Z,55.76
2022-11-10T11:00:22.637Z,55.53
2022-11-10T11:05:43.248Z,55.60
2022-11-10T11:11:09.547Z,55.59
2022-11-10T11:16:46.129Z,55.07
2022-11-10T11:22:43.734Z,54.93
2022-11-10T11:28:12.967Z,54.57
2022-11-10T11:33:40.239Z,54.21
2022-11-10T11:39:26.242Z,53.96
2022-11-10T11:45:16.101Z,54.05
2022-11-10T11:50:43.723Z,53.85
2022-11-10T11:56:20.430Z,54.24
2022-11-10T12:01:46.795Z,53.69
2022-11-10T12:07:27.917Z,53.67
2022-11-10T12:12:57.864Z,53.59
2022-11-10T12:18:33.630Z,53.30
2022-11-10T12:24:15.454Z,53.14
2022-11-10T12:29:43.550Z,52.75
2022-11-10T12:35:14.095Z,52.57
2022-11-10T12:40:46.341Z,52.19
2022-11-10T12:46:12.036Z,52.08
2022-11-10T12:52:09.706Z,52.15
2022-11-10T12:57:31.366Z,51.73
2022-11-10T13:02:55.393Z,51.32
2022-11-10T13:08:32.953Z,51.10
2022-11-10T13:13:59.951Z,50.88
2022-11-10T13:19:20.327Z,51.04
2022-11-10T13:24:42.997Z,50.82
2022-11-10T13:30:03.648Z,50.32
2022-11-10T13:35:54.728Z,50.29
2022-11-10T13:41:15.568Z,50.32
2022-11-10T13:46:45.009Z,50.13
2022-11-10T13:52:11.209Z,49.88
2022-11-10T13:57:34.958Z,49.89
2022-11-10T14:02:58.124Z,49.69
2022-11-10T14:08:23.074Z,49.26
2022-11-10T14:13:56.441Z,49.35
2022-11-10T14:19:32.198Z,48.95
2022-11-10T14:25:02.459Z,48.40
2022-11-10T14:30:33.507Z,48.68
2022-11-10T14:35:56.576Z,48.49
2022-11-10T14:41:21.962Z,48.73
2022-11-10T14:46:42.523Z,48.21
2022-11-10T14:52:02.477Z,48.24
2022-11-10T14:57:22.882Z,48.06
2022-11-10T15:02:43.392Z,47.83
2022-11-10T15:08:04.554Z,47.72
2022-11-10T15:13:27.798Z,47.75
2022-11-10T15:18:50.966Z,47.67
2022-11-10T15:24:11.435Z,47.62
2022-11-10T15:29:31.647Z,47.52
2022-11-10T15:34:53.013Z,47.62
2022-11-10T15:40:27.921Z,47.51
2022-11-10T15:45:55.210Z,47.51
2022-11-10T15:51:23.011Z,47.50
2022-11-10T15:56:46.332Z,47.68
2022-11-10T16:02:25.822Z,47.48
2022-11-10T16:07:45.737Z,47.74
2022-11-10T16:13:06.113Z,47.73
2022-11-10T16:18:30.902Z,47.78
2022-11-10T16:23:53.358Z,47.89
2022-11-10T16:29:17.699Z,48.13
2022-11-10T16:34:37.745Z,48.48
2022-11-10T16:39:58.140Z,48.36
2022-11-10T16:45:21.868Z,48.41
2022-11-10T16:50:43.015Z,48.28
2022-11-10T16:56:03.048Z,48.71
2022-11-10T17:01:27.910Z,48.61
2022-11-10T17:06:48.173Z,49.03
2022-11-10T17:12:12.572Z,48.84
2022-11-10T17:17:35.292Z,48.93
2022-11-10T17:22:56.579Z,49.22
2022-11-10T17:28:18.313Z,49.25
2022-11-10T17:33:38.492Z,49.22
2022-11-10T17:38:58.586Z,49.50
2022-11-10T17:44:19.501Z,49.64
2022-11-10T17:49:39.482Z,50.18
2022-11-10T17:55:00.009Z,50.20
2022-11-10T18:00:20.454Z,50.46
2022-11-10T18:05:41.258Z,50.69
2022-11-10T18:11:01.564Z,50.61
2022-11-10T18:16:22.026Z,50.97
2022-11-10T18:21:42.085Z,50.84
2022-11-10T18:27:02.063Z,50.62
2022-11-10T18:32:23.335Z,50.71
2022-11-10T18:37:43.948Z,50.96
2022-11-10T18:43:07.484Z,51.13
2022-11-10T18:48:31.104Z,51.29
2022-11-10T18:53:54.946Z,51.05
2022-11-10T18:59:15.519Z,51.19
2022-11-10T19:04:35.608Z,51.29
2022-11-10T19:09:55.707Z,51.18
2022-11-10T19:15:15.735Z,50.91
2022-11-10T19:20:37.147Z,51.08
2022-11-10T19:26:01.307Z,51.31
2022-11-10T19:31:22.971Z,51.45
2022-11-10T19:36:43.671Z,51.46
2022-11-10T19:42:03.933Z,51.56
2022-11-10T19:47:25.091Z,51.45
2022-11-10T19:52:45.515Z,51.55
2022-11-10T19:58:05.835Z,51.95
2022-11-10T20:03:26.097Z,51.95
2022-11-10T20:08:47.737Z,51.47
2022-11-10T20:14:08.234Z,51.72
2022-11-10T20:19:28.694Z,51.33
2022-11-10T20:24:51.269Z,51.43
2022-11-10T20:30:11.730Z,51.34
2022-11-10T20:35:32.343Z,51.70
2022-11-10T20:41:01.709Z,51.64
2022-11-10T20:46:48.428Z,51.61
2022-11-10T20:52:03.386Z,51.22
2022-11-10T20:57:23.464Z,52.08
2022-11-10T21:02:43.949Z,52.34
2022-11-10T21:08:04.166Z,52.18
2022-11-10T21:13:25.881Z,52.06
2022-11-10T21:18:46.231Z,52.39
2022-11-10T21:24:07.870Z,52.83
2022-11-10T21:29:27.797Z,52.67
2022-11-10T21:34:48.101Z,52.70
2022-11-10T21:40:09.076Z,52.25
2022-11-10T21:45:29.413Z,52.16
2022-11-10T21:50:49.683Z,53.04
2022-11-10T21:56:11.273Z,52.70
2022-11-10T22:01:31.945Z,52.47
2022-11-10T22:07:10.509Z,52.17
2022-11-10T22:12:48.927Z,51.86
2022-11-10T22:18:34.223Z,52.16
2022-11-10T22:24:13.096Z,52.03
2022-11-10T22:29:33.768Z,52.90
2022-11-10T22:34:53.630Z,52.80
2022-11-10T22:40:32.467Z,53.21
2022-11-10T22:45:52.750Z,53.07
2022-11-10T22:51:13.167Z,52.92
2022-11-10T22:56:33.773Z,52.87
2022-11-10T23:01:56.034Z,52.95
2022-11-10T23:07:16.482Z,52.97
2022-11-10T23:12:37.448Z,53.14
2022-11-10T23:17:59.974Z,53.34
2022-11-10T23:23:25.093Z,53.26
2022-11-10T23:28:46.333Z,53.43
2022-11-10T23:34:06.993Z,53.50
2022-11-10T23:39:27.190Z,53.67
2022-11-10T23:44:47.439Z,53.69
2022-11-10T23:50:08.124Z,53.44
2022-11-10T23:55:28.757Z,53.68
